createdAt,value
2023-05-02T00:01:20.980Z,12.10
2023-05-02T00:03:48.359Z,12.10
2023-05-02T00:06:15.388Z,11.90
2023-05-02T00:08:42.392Z,11.90
2023-05-02T00:11:09.298Z,11.80
2023-05-02T00:13:36.280Z,11.80
2023-05-02T00:16:03.318Z,11.80
2023-05-02T00:18:30.314Z,11.90
2023-05-02T00:20:57.204Z,12.00
2023-05-02T00:23:24.273Z,11.90
2023-05-02T00:25:51.371Z,11.80
2023-05-02T00:28:18.744Z,11.80
2023-05-02T00:30:46.816Z,11.80
2023-05-02T00:33:15.273Z,11.80
2023-05-02T00:35:42.410Z,11.70
2023-05-02T00:38:09.606Z,11.80
2023-05-02T00:40:53.524Z,11.60
2023-05-02T00:43:21.260Z,11.60
2023-05-02T00:45:48.802Z,11.60
2023-05-02T00:48:20.324Z,11.50
2023-05-02T00:50:47.121Z,11.50
2023-05-02T00:53:13.917Z,11.60
2023-05-02T00:55:40.780Z,11.70
2023-05-02T00:58:13.756Z,11.70
2023-05-02T01:00:49.823Z,11.80
2023-05-02T01:03:30.067Z,11.90
2023-05-02T01:06:20.776Z,11.90
2023-05-02T01:08:55.167Z,11.90
2023-05-02T01:11:52.200Z,12.00
2023-05-02T01:14:21.365Z,11.90
2023-05-02T01:16:49.845Z,12.00
2023-05-02T01:19:29.434Z,12.00
2023-05-02T01:21:59.136Z,12.00
2023-05-02T01:24:32.758Z,12.00
2023-05-02T01:27:05.743Z,12.00
2023-05-02T01:29:33.208Z,12.00
2023-05-02T01:32:02.450Z,11.90
2023-05-02T01:34:31.421Z,11.90
2023-05-02T01:36:59.468Z,11.80
2023-05-02T01:39:27.461Z,11.90
2023-05-02T01:41:57.437Z,12.00
2023-05-02T01:44:25.382Z,11.80
2023-05-02T01:46:55.066Z,11.90
2023-05-02T01:49:24.672Z,11.80
2023-05-02T01:51:52.988Z,11.80
2023-05-02T01:54:23.113Z,11.90
2023-05-02T01:56:52.216Z,11.80
2023-05-02T01:59:21.794Z,11.80
2023-05-02T02:01:50.427Z,11.80
2023-05-02T02:04:19.436Z,11.60
2023-05-02T02:06:51.071Z,11.80
2023-05-02T02:09:18.194Z,11.80
2023-05-02T02:11:52.336Z,11.90
2023-05-02T02:14:21.737Z,11.90
2023-05-02T02:16:50.867Z,11.70
2023-05-02T02:19:18.719Z,11.70
2023-05-02T02:21:48.300Z,11.70
2023-05-02T02:24:22.719Z,11.70
2023-05-02T02:26:49.662Z,11.70
2023-05-02T02:29:16.525Z,11.80
2023-05-02T02:31:43.554Z,11.90
2023-05-02T02:34:11.166Z,11.90
2023-05-02T02:36:47.902Z,11.90
2023-05-02T02:39:44.210Z,11.90
2023-05-02T02:42:45.374Z,11.80
2023-05-02T02:46:05.991Z,11.70
2023-05-02T02:48:43.423Z,11.70
2023-05-02T02:51:25.823Z,11.90
2023-05-02T02:54:27.124Z,11.90
2023-05-02T02:57:14.031Z,11.80
2023-05-02T02:59:47.326Z,11.80
2023-05-02T03:02:18.831Z,11.80
2023-05-02T03:04:48.656Z,11.80
2023-05-02T03:07:15.699Z,11.70
2023-05-02T03:09:46.988Z,11.70
2023-05-02T03:12:14.358Z,11.70
2023-05-02T03:14:41.821Z,11.70
2023-05-02T03:17:08.661Z,11.60
2023-05-02T03:19:35.855Z,11.70
2023-05-02T03:22:02.871Z,11.80
2023-05-02T03:24:29.758Z,11.70
2023-05-02T03:26:57.399Z,11.80
2023-05-02T03:29:24.608Z,11.80
2023-05-02T03:31:52.025Z,12.00
2023-05-02T03:34:19.816Z,12.00
2023-05-02T03:36:46.685Z,11.90
2023-05-02T03:39:13.473Z,11.90
2023-05-02T03:41:40.354Z,11.80
2023-05-02T03:44:07.204Z,11.70
2023-05-02T03:46:34.058Z,11.50
2023-05-02T03:49:00.974Z,11.60
2023-05-02T03:51:27.861Z,11.40
2023-05-02T03:53:54.863Z,11.40
2023-05-02T03:56:21.794Z,11.30
2023-05-02T03:58:49.411Z,11.20
2023-05-02T04:01:17.221Z,11.00
2023-05-02T04:03:44.527Z,11.00
2023-05-02T04:06:13.159Z,11.10
2023-05-02T04:08:40.255Z,11.00
2023-05-02T04:11:07.387Z,11.00
2023-05-02T04:13:34.276Z,11.10
2023-05-02T04:16:01.007Z,11.10
2023-05-02T04:18:27.956Z,11.00
2023-05-02T04:20:54.804Z,10.90
2023-05-02T04:23:21.664Z,10.90
2023-05-02T04:25:56.243Z,10.90
2023-05-02T04:28:23.295Z,11.10
2023-05-02T04:30:50.773Z,11.00
2023-05-02T04:33:21.356Z,11.00
2023-05-02T04:35:48.300Z,11.00
2023-05-02T04:38:15.760Z,11.00
2023-05-02T04:40:42.674Z,10.90
2023-05-02T04:43:09.642Z,11.00
2023-05-02T04:45:36.983Z,11.00
2023-05-02T04:48:04.706Z,10.80
2023-05-02T04:50:32.523Z,11.00
2023-05-02T04:52:59.586Z,10.90
2023-05-02T04:55:26.651Z,10.90
2023-05-02T04:57:53.508Z,11.00
2023-05-02T05:00:21.875Z,11.00
2023-05-02T05:02:48.899Z,11.10
2023-05-02T05:05:15.914Z,11.20
2023-05-02T05:07:43.542Z,11.10
2023-05-02T05:10:11.599Z,11.10
2023-05-02T05:12:38.481Z,11.10
2023-05-02T05:15:05.831Z,11.20
2023-05-02T05:17:32.775Z,11.10
2023-05-02T05:19:59.770Z,11.00
2023-05-02T05:22:26.705Z,11.10
2023-05-02T05:24:54.608Z,11.00
2023-05-02T05:27:22.039Z,11.10
2023-05-02T05:29:48.929Z,11.20
2023-05-02T05:32:15.972Z,11.10
2023-05-02T05:34:42.919Z,11.20
2023-05-02T05:37:09.791Z,11.30
2023-05-02T05:39:36.697Z,11.10
2023-05-02T05:42:03.788Z,11.00
2023-05-02T05:44:31.677Z,10.90
2023-05-02T05:46:58.784Z,11.00
2023-05-02T05:49:25.782Z,11.20
2023-05-02T05:51:52.759Z,11.00
2023-05-02T05:54:19.645Z,10.90
2023-05-02T05:56:46.861Z,10.90
2023-05-02T05:59:13.820Z,10.90
2023-05-02T06:01:41.027Z,11.00
2023-05-02T06:04:08.288Z,11.00
2023-05-02T06:06:35.660Z,11.00
2023-05-02T06:09:02.682Z,11.20
2023-05-02T06:11:29.758Z,11.20
2023-05-02T06:13:56.568Z,11.30
2023-05-02T06:16:23.444Z,11.20
2023-05-02T06:18:51.806Z,11.00
2023-05-02T06:21:18.739Z,10.90
2023-05-02T06:23:46.058Z,10.90
2023-05-02T06:26:12.858Z,11.00
2023-05-02T06:28:39.831Z,10.80
2023-05-02T06:31:06.927Z,11.00
2023-05-02T06:33:34.526Z,11.10
2023-05-02T06:36:02.184Z,11.30
2023-05-02T06:38:29.454Z,11.20
2023-05-02T06:40:56.484Z,11.10
2023-05-02T06:43:23.449Z,11.10
2023-05-02T06:45:54.602Z,11.20
2023-05-02T06:48:21.903Z,11.00
2023-05-02T06:50:49.686Z,10.90
2023-05-02T06:53:16.774Z,10.70
2023-05-02T06:55:45.780Z,11.00
2023-05-02T06:58:13.015Z,10.80
2023-05-02T07:00:39.870Z,10.90
2023-05-02T07:03:06.892Z,10.90
2023-05-02T07:05:33.800Z,10.80
2023-05-02T07:08:00.831Z,10.90
2023-05-02T07:10:27.813Z,11.00
2023-05-02T07:12:54.730Z,11.00
2023-05-02T07:15:21.697Z,10.90
2023-05-02T07:17:49.704Z,11.00
2023-05-02T07:20:16.743Z,10.80
2023-05-02T07:22:43.644Z,10.70
2023-05-02T07:25:10.954Z,10.90
2023-05-02T07:27:38.084Z,10.70
2023-05-02T07:30:06.881Z,10.50
2023-05-02T07:32:33.982Z,10.70
2023-05-02T07:35:01.826Z,10.70
2023-05-02T07:37:34.611Z,10.70
2023-05-02T07:40:02.342Z,10.60
2023-05-02T07:42:30.959Z,10.70
2023-05-02T07:44:59.171Z,10.70
2023-05-02T07:47:29.481Z,10.50
2023-05-02T07:49:56.690Z,10.50
2023-05-02T07:52:23.849Z,10.70
2023-05-02T07:54:51.409Z,10.80
2023-05-02T07:57:19.043Z,10.80
2023-05-02T07:59:46.154Z,10.90
2023-05-02T08:02:14.125Z,11.00
2023-05-02T08:04:41.503Z,11.10
2023-05-02T08:07:08.637Z,11.20
2023-05-02T08:09:35.513Z,11.20
2023-05-02T08:12:03.417Z,11.50
2023-05-02T08:14:30.537Z,11.40
2023-05-02T08:16:59.102Z,11.60
2023-05-02T08:19:26.569Z,11.60
2023-05-02T08:21:56.628Z,11.90
2023-05-02T08:24:23.562Z,12.20
2023-05-02T08:26:50.932Z,12.30
2023-05-02T08:29:17.837Z,13.10
2023-05-02T08:31:44.827Z,13.30
2023-05-02T08:34:11.839Z,12.50
2023-05-02T08:36:38.736Z,12.40
2023-05-02T08:39:08.107Z,12.10
2023-05-02T08:41:35.427Z,11.90
2023-05-02T08:44:04.102Z,11.90
2023-05-02T08:46:32.549Z,12.20
2023-05-02T08:49:00.169Z,12.10
2023-05-02T08:51:29.438Z,12.30
2023-05-02T08:53:58.258Z,12.10
2023-05-02T08:56:25.358Z,12.10
2023-05-02T08:58:52.347Z,12.70
2023-05-02T09:01:23.799Z,12.70
2023-05-02T09:03:50.886Z,12.70
2023-05-02T09:06:22.739Z,12.60
2023-05-02T09:08:53.161Z,12.30
2023-05-02T09:11:20.233Z,12.30
2023-05-02T09:13:51.919Z,12.80
2023-05-02T09:16:25.830Z,12.80
2023-05-02T09:18:58.110Z,13.10
2023-05-02T09:21:34.913Z,13.10
2023-05-02T09:24:03.422Z,12.70
2023-05-02T09:26:34.053Z,12.60
2023-05-02T09:29:05.447Z,12.70
2023-05-02T09:31:55.065Z,13.10
2023-05-02T09:34:23.473Z,12.80
2023-05-02T09:36:54.198Z,12.70
2023-05-02T09:39:26.253Z,12.40
2023-05-02T09:41:54.338Z,12.00
2023-05-02T09:44:27.512Z,11.80
2023-05-02T09:46:57.471Z,11.80
2023-05-02T09:49:47.052Z,12.20
2023-05-02T09:52:15.944Z,12.60
2023-05-02T09:54:43.568Z,12.50
2023-05-02T09:57:11.504Z,12.70
2023-05-02T09:59:40.094Z,13.00
2023-05-02T10:02:09.770Z,13.10
2023-05-02T10:04:37.520Z,13.10
2023-05-02T10:07:06.649Z,13.60
2023-05-02T10:09:37.056Z,13.80
2023-05-02T10:12:05.186Z,13.50
2023-05-02T10:14:36.037Z,13.80
2023-05-02T10:17:13.333Z,13.70
2023-05-02T10:19:59.322Z,13.30
2023-05-02T10:22:27.021Z,13.20
2023-05-02T10:24:54.900Z,12.90
2023-05-02T10:27:22.543Z,12.90
2023-05-02T10:29:51.335Z,12.80
2023-05-02T10:32:18.643Z,12.70
2023-05-02T10:34:47.752Z,12.80
2023-05-02T10:37:15.955Z,13.20
2023-05-02T10:39:42.855Z,13.60
2023-05-02T10:42:10.722Z,13.30
2023-05-02T10:44:40.024Z,13.70
2023-05-02T10:47:23.252Z,13.70
2023-05-02T10:49:54.498Z,13.90
2023-05-02T10:52:38.798Z,14.40
2023-05-02T10:55:24.521Z,14.00
2023-05-02T10:57:57.944Z,13.90
2023-05-02T11:00:29.664Z,14.30
2023-05-02T11:02:56.946Z,13.70
2023-05-02T11:05:24.914Z,13.70
2023-05-02T11:08:22.973Z,13.80
2023-05-02T11:10:50.254Z,14.20
2023-05-02T11:13:37.071Z,13.70
2023-05-02T11:16:04.067Z,13.60
2023-05-02T11:19:01.013Z,13.50
2023-05-02T11:21:29.540Z,13.10
2023-05-02T11:24:34.068Z,12.80
2023-05-02T11:27:28.905Z,13.10
2023-05-02T11:30:00.408Z,13.40
2023-05-02T11:32:45.657Z,14.00
2023-05-02T11:35:31.197Z,14.30
2023-05-02T11:38:00.691Z,14.60
2023-05-02T11:40:28.371Z,15.40
2023-05-02T11:42:56.447Z,15.10
2023-05-02T11:45:33.370Z,14.40
2023-05-02T11:48:00.352Z,14.50
2023-05-02T11:50:30.254Z,14.60
2023-05-02T11:52:57.360Z,15.20
2023-05-02T11:55:24.349Z,14.60
2023-05-02T11:57:51.575Z,14.40
2023-05-02T12:00:18.543Z,14.60
2023-05-02T12:02:49.772Z,14.70
2023-05-02T12:05:30.048Z,14.80
2023-05-02T12:07:57.074Z,15.40
2023-05-02T12:10:35.212Z,15.70
2023-05-02T12:13:06.251Z,16.50
2023-05-02T12:15:34.061Z,16.40
2023-05-02T12:18:02.041Z,15.70
2023-05-02T12:20:29.003Z,15.30
2023-05-02T12:22:56.345Z,15.00
2023-05-02T12:25:23.282Z,15.00
2023-05-02T12:28:00.623Z,15.50
2023-05-02T12:30:31.328Z,16.00
2023-05-02T12:32:59.666Z,16.20
2023-05-02T12:35:26.926Z,15.50
2023-05-02T12:37:54.434Z,15.80
2023-05-02T12:40:21.759Z,16.80
2023-05-02T12:43:07.540Z,16.60
2023-05-02T12:45:34.706Z,16.70
2023-05-02T12:48:25.709Z,16.90
2023-05-02T12:50:54.801Z,16.50
2023-05-02T12:53:44.310Z,16.90
2023-05-02T12:56:12.128Z,17.00
2023-05-02T12:58:47.299Z,17.20
2023-05-02T13:01:15.533Z,17.50
2023-05-02T13:03:43.954Z,17.80
2023-05-02T13:06:11.420Z,17.30
2023-05-02T13:08:38.352Z,17.00
2023-05-02T13:11:05.468Z,17.40
2023-05-02T13:13:32.813Z,18.20
2023-05-02T13:15:59.903Z,17.50
2023-05-02T13:18:28.164Z,17.40
2023-05-02T13:20:55.389Z,18.10
2023-05-02T13:23:22.297Z,17.60
2023-05-02T13:25:49.170Z,18.00
2023-05-02T13:28:16.321Z,17.90
2023-05-02T13:30:43.237Z,18.30
2023-05-02T13:33:10.132Z,17.60
2023-05-02T13:35:37.173Z,17.50
2023-05-02T13:38:04.293Z,17.00
2023-05-02T13:40:31.086Z,17.40
2023-05-02T13:42:58.025Z,17.40
2023-05-02T13:45:25.000Z,17.60
2023-05-02T13:47:51.772Z,18.10
2023-05-02T13:50:18.674Z,18.30
2023-05-02T13:52:48.408Z,18.40
2023-05-02T13:55:17.880Z,17.80
2023-05-02T13:57:45.217Z,17.50
2023-05-02T14:00:12.713Z,17.80
2023-05-02T14:02:39.648Z,17.70
2023-05-02T14:05:07.203Z,16.90
2023-05-02T14:07:34.098Z,16.60
2023-05-02T14:10:01.098Z,16.90
2023-05-02T14:12:28.412Z,16.10
2023-05-02T14:14:55.242Z,16.30
2023-05-02T14:17:25.112Z,16.00
2023-05-02T14:19:52.179Z,16.80
2023-05-02T14:22:19.080Z,16.60
2023-05-02T14:24:45.949Z,16.00
2023-05-02T14:27:18.053Z,16.40
2023-05-02T14:29:46.000Z,16.00
2023-05-02T14:32:13.018Z,15.90
2023-05-02T14:34:40.723Z,15.60
2023-05-02T14:37:09.157Z,15.30
2023-05-02T14:39:37.001Z,15.10
2023-05-02T14:42:04.515Z,15.50
2023-05-02T14:44:31.725Z,15.70
2023-05-02T14:46:58.779Z,15.70
2023-05-02T14:49:25.765Z,15.70
2023-05-02T14:51:52.931Z,15.80
2023-05-02T14:54:20.479Z,15.70
2023-05-02T14:56:48.356Z,16.00
2023-05-02T14:59:15.766Z,15.80
2023-05-02T15:01:42.823Z,15.70
2023-05-02T15:04:10.509Z,15.90
2023-05-02T15:06:38.286Z,15.90
2023-05-02T15:09:05.619Z,15.40
2023-05-02T15:11:32.455Z,15.30
2023-05-02T15:13:59.724Z,15.40
2023-05-02T15:16:27.579Z,15.30
2023-05-02T15:18:54.823Z,15.00
2023-05-02T15:21:22.070Z,14.90
2023-05-02T15:23:49.053Z,14.80
2023-05-02T15:26:16.062Z,15.10
2023-05-02T15:28:42.981Z,15.40
2023-05-02T15:31:09.763Z,15.30
2023-05-02T15:33:37.949Z,15.20
2023-05-02T15:36:05.053Z,15.10
2023-05-02T15:38:34.082Z,15.10
2023-05-02T15:41:00.934Z,14.70
2023-05-02T15:43:28.010Z,14.70
2023-05-02T15:45:56.774Z,14.50
2023-05-02T15:48:26.713Z,14.70
2023-05-02T15:50:53.719Z,14.40
2023-05-02T15:53:23.919Z,14.60
2023-05-02T15:55:52.723Z,14.30
2023-05-02T15:58:19.899Z,14.70
2023-05-02T16:00:47.587Z,14.40
2023-05-02T16:03:15.648Z,14.30
2023-05-02T16:05:42.702Z,14.60
2023-05-02T16:08:09.669Z,14.80
2023-05-02T16:10:39.233Z,14.90
2023-05-02T16:13:06.190Z,14.90
2023-05-02T16:15:33.104Z,14.80
2023-05-02T16:18:00.028Z,15.00
2023-05-02T16:20:28.405Z,14.70
2023-05-02T16:22:55.330Z,14.30
2023-05-02T16:25:22.353Z,14.20
2023-05-02T16:27:49.427Z,14.50
2023-05-02T16:30:16.404Z,14.70
2023-05-02T16:32:43.433Z,14.60
2023-05-02T16:35:13.109Z,14.20
2023-05-02T16:37:41.301Z,14.00
2023-05-02T16:40:09.177Z,13.90
2023-05-02T16:42:36.461Z,14.10
2023-05-02T16:45:03.813Z,14.20
2023-05-02T16:47:30.938Z,14.10
2023-05-02T16:49:59.079Z,13.90
2023-05-02T16:52:26.862Z,14.00
2023-05-02T16:54:53.950Z,13.60
2023-05-02T16:57:21.570Z,13.70
2023-05-02T16:59:51.594Z,13.60
2023-05-02T17:02:21.051Z,13.80
2023-05-02T17:04:49.794Z,13.80
2023-05-02T17:07:17.021Z,13.60
2023-05-02T17:09:44.595Z,13.70
2023-05-02T17:12:12.244Z,13.60
2023-05-02T17:14:42.817Z,13.30
2023-05-02T17:17:10.103Z,13.20
2023-05-02T17:19:37.274Z,13.30
2023-05-02T17:22:05.468Z,13.20
2023-05-02T17:24:33.288Z,13.20
2023-05-02T17:27:01.549Z,13.20
2023-05-02T17:29:28.546Z,13.20
2023-05-02T17:32:01.649Z,13.30
2023-05-02T17:34:30.335Z,13.10
2023-05-02T17:36:57.240Z,13.00
2023-05-02T17:39:24.082Z,13.00
2023-05-02T17:41:50.942Z,12.80
2023-05-02T17:44:17.897Z,12.80
2023-05-02T17:46:44.893Z,12.90
2023-05-02T17:49:11.850Z,12.80
2023-05-02T17:51:38.780Z,12.80
2023-05-02T17:54:05.937Z,12.90
2023-05-02T17:56:35.074Z,12.80
2023-05-02T17:59:02.044Z,12.80
2023-05-02T18:01:28.919Z,12.80
2023-05-02T18:03:56.004Z,12.60
2023-05-02T18:06:23.172Z,12.40
2023-05-02T18:08:50.126Z,12.50
2023-05-02T18:11:18.360Z,12.60
2023-05-02T18:13:45.923Z,12.50
2023-05-02T18:16:14.045Z,12.40
2023-05-02T18:18:41.418Z,12.40
2023-05-02T18:21:09.646Z,12.40
2023-05-02T18:23:36.655Z,12.40
2023-05-02T18:26:03.982Z,12.30
2023-05-02T18:28:30.795Z,12.30
2023-05-02T18:30:57.548Z,12.30
2023-05-02T18:33:24.489Z,12.40
2023-05-02T18:35:51.336Z,12.30
2023-05-02T18:38:18.431Z,12.20
2023-05-02T18:40:45.392Z,12.30
2023-05-02T18:43:12.175Z,12.20
2023-05-02T18:45:38.958Z,12.10
2023-05-02T18:48:06.102Z,12.20
2023-05-02T18:50:33.012Z,12.20
2023-05-02T18:52:59.928Z,12.20
2023-05-02T18:55:26.790Z,12.20
2023-05-02T18:57:53.671Z,12.10
2023-05-02T19:00:20.971Z,12.00
2023-05-02T19:02:50.950Z,11.80
2023-05-02T19:05:17.910Z,11.80
2023-05-02T19:07:45.033Z,11.70
2023-05-02T19:10:12.474Z,11.70
2023-05-02T19:12:40.685Z,11.70
2023-05-02T19:15:09.134Z,11.60
2023-05-02T19:17:36.672Z,11.50
2023-05-02T19:20:05.964Z,11.60
2023-05-02T19:22:34.789Z,11.50
2023-05-02T19:25:02.142Z,11.30
2023-05-02T19:27:29.397Z,11.40
2023-05-02T19:29:58.199Z,11.40
2023-05-02T19:32:25.427Z,11.50
2023-05-02T19:34:52.392Z,11.30
2023-05-02T19:37:19.270Z,11.40
2023-05-02T19:39:46.167Z,11.40
2023-05-02T19:42:13.121Z,11.30
2023-05-02T19:44:40.199Z,11.10
2023-05-02T19:47:07.541Z,11.10
2023-05-02T19:49:35.063Z,11.00
2023-05-02T19:52:01.929Z,10.90
2023-05-02T19:54:42.445Z,10.90
2023-05-02T19:57:09.289Z,11.00
2023-05-02T19:59:36.272Z,11.10
2023-05-02T20:02:03.202Z,10.90
2023-05-02T20:04:30.064Z,10.90
2023-05-02T20:06:56.925Z,10.80
2023-05-02T20:09:23.784Z,10.80
2023-05-02T20:11:50.833Z,10.70
2023-05-02T20:14:18.891Z,10.70
2023-05-02T20:16:46.302Z,10.60
2023-05-02T20:19:14.252Z,10.50
2023-05-02T20:21:41.288Z,10.40
2023-05-02T20:24:08.559Z,10.50
2023-05-02T20:26:35.476Z,10.50
2023-05-02T20:29:03.508Z,10.50
2023-05-02T20:31:30.629Z,10.50
2023-05-02T20:33:57.689Z,10.50
2023-05-02T20:36:24.505Z,10.40
2023-05-02T20:38:51.576Z,10.30
2023-05-02T20:41:18.414Z,10.10
2023-05-02T20:43:45.815Z,10.30
2023-05-02T20:46:14.070Z,10.20
2023-05-02T20:48:41.473Z,10.20
2023-05-02T20:51:08.820Z,10.20
2023-05-02T20:53:37.478Z,10.00
2023-05-02T20:56:05.052Z,10.20
2023-05-02T20:58:32.271Z,10.10
2023-05-02T21:00:59.561Z,10.30
2023-05-02T21:03:27.840Z,10.10
2023-05-02T21:05:56.507Z,10.10
2023-05-02T21:08:23.747Z,10.10
2023-05-02T21:10:51.526Z,10.10
2023-05-02T21:13:19.672Z,10.20
2023-05-02T21:15:46.678Z,10.00
2023-05-02T21:18:13.764Z,10.00
2023-05-02T21:20:41.588Z,9.90
2023-05-02T21:23:11.259Z,9.90
2023-05-02T21:25:38.614Z,9.90
2023-05-02T21:28:06.027Z,9.90
2023-05-02T21:30:33.086Z,9.90
2023-05-02T21:33:00.181Z,9.90
2023-05-02T21:35:28.667Z,9.80
2023-05-02T21:37:55.588Z,9.80
2023-05-02T21:40:22.436Z,9.80
2023-05-02T21:42:49.293Z,9.90
2023-05-02T21:45:16.189Z,9.90
2023-05-02T21:47:43.482Z,9.80
2023-05-02T21:50:10.626Z,9.90
2023-05-02T21:52:37.531Z,9.60
2023-05-02T21:55:04.658Z,9.70
2023-05-02T21:57:31.610Z,9.80
2023-05-02T21:59:58.485Z,9.60
2023-05-02T22:02:25.357Z,9.60
2023-05-02T22:04:52.226Z,9.50
2023-05-02T22:07:19.096Z,9.60
2023-05-02T22:09:46.273Z,9.50
2023-05-02T22:12:13.219Z,9.60
2023-05-02T22:14:44.997Z,9.50
2023-05-02T22:17:13.382Z,9.50
2023-05-02T22:19:40.672Z,9.30
2023-05-02T22:22:07.720Z,9.40
2023-05-02T22:24:34.762Z,9.50
2023-05-02T22:27:02.711Z,9.60
2023-05-02T22:29:29.619Z,9.60
2023-05-02T22:31:56.613Z,9.50
2023-05-02T22:34:23.537Z,9.50
2023-05-02T22:36:50.566Z,9.60
2023-05-02T22:39:17.986Z,9.40
2023-05-02T22:41:44.800Z,9.50
2023-05-02T22:44:11.707Z,9.60
2023-05-02T22:46:39.228Z,9.60
2023-05-02T22:49:10.485Z,9.40
2023-05-02T22:51:40.417Z,9.40
2023-05-02T22:54:08.611Z,9.30
2023-05-02T22:56:35.602Z,9.20
2023-05-02T22:59:02.605Z,9.30
2023-05-02T23:01:29.533Z,9.50
2023-05-02T23:03:56.607Z,9.40
2023-05-02T23:06:23.583Z,9.50
2023-05-02T23:08:50.558Z,9.50
2023-05-02T23:11:17.467Z,9.20
2023-05-02T23:13:44.432Z,9.20
2023-05-02T23:16:11.409Z,9.20
2023-05-02T23:18:38.343Z,9.20
2023-05-02T23:21:05.366Z,9.20
2023-05-02T23:23:32.261Z,9.30
2023-05-02T23:25:59.121Z,9.20
2023-05-02T23:28:26.420Z,9.00
2023-05-02T23:30:53.813Z,9.00
2023-05-02T23:33:21.278Z,9.10
2023-05-02T23:35:48.460Z,8.90
2023-05-02T23:38:15.894Z,9.10
2023-05-02T23:40:42.971Z,9.00
2023-05-02T23:43:10.933Z,8.90
2023-05-02T23:45:37.817Z,8.90
2023-05-02T23:48:04.880Z,8.80
2023-05-02T23:50:32.978Z,8.70
2023-05-02T23:52:59.852Z,8.80
2023-05-02T23:55:27.094Z,8.80
2023-05-02T23:57:53.982Z,8.70
